createdAt,value
2023-04-18T00:01:31.911Z,18.39
2023-04-18T00:04:34.317Z,18.23
2023-04-18T00:07:37.000Z,18.32
2023-04-18T00:10:39.414Z,18.26
2023-04-18T00:13:41.919Z,18.21
2023-04-18T00:16:44.447Z,18.22
2023-04-18T00:19:47.191Z,18.37
2023-04-18T00:22:49.584Z,18.27
2023-04-18T00:25:51.952Z,18.18
2023-04-18T00:28:54.346Z,18.10
2023-04-18T00:31:56.810Z,18.32
2023-04-18T00:34:59.245Z,18.16
2023-04-18T00:38:01.615Z,18.12
2023-04-18T00:41:04.122Z,18.17
2023-04-18T00:44:06.504Z,18.05
2023-04-18T00:47:08.865Z,18.05
2023-04-18T00:50:11.977Z,18.19
2023-04-18T00:53:15.661Z,18.21
2023-04-18T00:56:18.106Z,18.01
2023-04-18T00:59:21.509Z,18.22
2023-04-18T01:02:26.393Z,18.06
2023-04-18T01:05:29.045Z,18.02
2023-04-18T01:08:32.829Z,18.01
2023-04-18T01:11:36.086Z,17.99
2023-04-18T01:14:42.130Z,18.00
2023-04-18T01:17:44.532Z,18.01
2023-04-18T01:20:50.622Z,18.00
2023-04-18T01:23:56.435Z,17.97
2023-04-18T01:26:59.118Z,18.12
2023-04-18T01:30:02.137Z,18.05
2023-04-18T01:33:06.085Z,18.10
2023-04-18T01:36:08.527Z,18.02
2023-04-18T01:39:10.925Z,17.95
2023-04-18T01:42:13.289Z,17.93
2023-04-18T01:45:16.335Z,18.07
2023-04-18T01:48:18.856Z,17.90
2023-04-18T01:51:21.542Z,17.97
2023-04-18T01:54:23.844Z,18.05
2023-04-18T01:57:28.889Z,18.05
2023-04-18T02:00:31.338Z,17.91
2023-04-18T02:03:33.840Z,17.88
2023-04-18T02:06:36.348Z,18.03
2023-04-18T02:09:38.797Z,17.84
2023-04-18T02:12:41.137Z,17.79
2023-04-18T02:15:46.651Z,17.82
2023-04-18T02:18:52.873Z,17.77
2023-04-18T02:21:55.333Z,17.82
2023-04-18T02:24:57.690Z,17.80
2023-04-18T02:28:00.157Z,17.98
2023-04-18T02:31:02.600Z,17.75
2023-04-18T02:34:05.035Z,17.97
2023-04-18T02:37:07.414Z,17.72
2023-04-18T02:40:10.290Z,17.93
2023-04-18T02:43:12.697Z,17.72
2023-04-18T02:46:15.224Z,17.89
2023-04-18T02:49:19.235Z,17.80
2023-04-18T02:52:21.592Z,17.71
2023-04-18T02:55:24.534Z,17.79
2023-04-18T02:58:28.849Z,17.85
2023-04-18T03:01:46.214Z,17.70
2023-04-18T03:04:51.483Z,17.75
2023-04-18T03:07:53.996Z,17.65
2023-04-18T03:10:56.471Z,17.69
2023-04-18T03:14:00.719Z,17.70
2023-04-18T03:17:10.350Z,17.82
2023-04-18T03:20:18.005Z,17.72
2023-04-18T03:23:20.459Z,17.74
2023-04-18T03:26:24.264Z,17.69
2023-04-18T03:29:27.746Z,17.67
2023-04-18T03:32:30.278Z,17.68
2023-04-18T03:35:32.812Z,17.65
2023-04-18T03:38:35.645Z,17.62
2023-04-18T03:41:38.711Z,17.81
2023-04-18T03:44:41.036Z,17.82
2023-04-18T03:47:43.786Z,17.61
2023-04-18T03:50:46.450Z,17.54
2023-04-18T03:53:48.929Z,17.66
2023-04-18T03:56:52.916Z,17.80
2023-04-18T03:59:55.825Z,17.56
2023-04-18T04:02:58.837Z,17.63
2023-04-18T04:06:01.503Z,17.80
2023-04-18T04:09:03.946Z,17.77
2023-04-18T04:12:06.654Z,17.86
2023-04-18T04:15:10.246Z,18.12
2023-04-18T04:18:17.619Z,18.30
2023-04-18T04:21:21.256Z,18.64
2023-04-18T04:24:29.202Z,18.85
2023-04-18T04:27:34.125Z,19.10
2023-04-18T04:30:38.326Z,19.57
2023-04-18T04:33:41.088Z,19.79
2023-04-18T04:36:51.264Z,20.09
2023-04-18T04:39:54.018Z,20.36
2023-04-18T04:43:22.666Z,20.59
2023-04-18T04:46:25.248Z,20.88
2023-04-18T04:49:28.500Z,20.91
2023-04-18T04:52:32.826Z,21.10
2023-04-18T04:55:36.064Z,21.27
2023-04-18T04:58:40.229Z,21.19
2023-04-18T05:01:53.584Z,21.15
2023-04-18T05:04:56.079Z,21.05
2023-04-18T05:07:58.563Z,21.10
2023-04-18T05:11:02.279Z,21.12
2023-04-18T05:14:04.724Z,20.95
2023-04-18T05:17:07.771Z,20.90
2023-04-18T05:20:10.618Z,20.87
2023-04-18T05:23:12.942Z,20.88
2023-04-18T05:26:15.363Z,20.79
2023-04-18T05:29:17.728Z,20.69
2023-04-18T05:32:20.444Z,20.81
2023-04-18T05:35:22.881Z,20.61
2023-04-18T05:38:25.772Z,20.64
2023-04-18T05:41:28.332Z,20.49
2023-04-18T05:44:30.840Z,20.41
2023-04-18T05:47:33.742Z,20.44
2023-04-18T05:50:36.191Z,20.50
2023-04-18T05:53:38.592Z,20.34
2023-04-18T05:56:41.273Z,20.36
2023-04-18T05:59:43.956Z,20.29
2023-04-18T06:02:46.895Z,20.10
2023-04-18T06:05:49.470Z,20.37
2023-04-18T06:08:51.900Z,20.33
2023-04-18T06:12:27.792Z,20.23
2023-04-18T06:15:30.427Z,19.86
2023-04-18T06:18:32.983Z,20.12
2023-04-18T06:21:35.395Z,19.94
2023-04-18T06:24:37.886Z,20.01
2023-04-18T06:27:40.249Z,20.04
2023-04-18T06:30:42.794Z,20.11
2023-04-18T06:33:45.220Z,19.93
2023-04-18T06:36:47.661Z,20.03
2023-04-18T06:39:50.482Z,20.06
2023-04-18T06:42:53.033Z,20.02
2023-04-18T06:45:56.712Z,19.89
2023-04-18T06:48:59.506Z,19.69
2023-04-18T06:52:02.019Z,19.84
2023-04-18T06:58:53.136Z,19.88
2023-04-18T07:01:57.669Z,19.80
2023-04-18T07:05:00.096Z,19.85
2023-04-18T07:08:03.297Z,19.61
2023-04-18T07:11:09.754Z,19.68
2023-04-18T07:14:23.152Z,19.70
2023-04-18T07:17:42.650Z,19.37
2023-04-18T07:20:45.269Z,19.58
2023-04-18T07:23:47.677Z,19.63
2023-04-18T07:26:53.795Z,19.79
2023-04-18T07:29:57.928Z,19.60
2023-04-18T07:33:01.132Z,19.53
2023-04-18T07:36:03.692Z,19.61
2023-04-18T07:39:06.530Z,19.67
2023-04-18T07:42:09.967Z,19.72
2023-04-18T07:45:12.459Z,19.69
2023-04-18T07:48:14.955Z,19.77
2023-04-18T07:51:17.446Z,19.61
2023-04-18T07:54:20.234Z,19.73
2023-04-18T07:57:22.728Z,19.85
2023-04-18T08:00:25.231Z,19.76
2023-04-18T08:03:28.026Z,19.82
2023-04-18T08:06:31.396Z,19.73
2023-04-18T08:13:46.949Z,20.10
2023-04-18T08:16:49.402Z,20.13
2023-04-18T08:19:51.745Z,20.15
2023-04-18T08:26:01.259Z,20.22
2023-04-18T08:29:03.742Z,19.95
2023-04-18T08:32:12.626Z,20.19
2023-04-18T08:35:15.417Z,20.28
2023-04-18T08:38:18.511Z,20.19
2023-04-18T08:41:24.081Z,20.29
2023-04-18T08:44:30.039Z,20.25
2023-04-18T08:47:35.260Z,20.23
2023-04-18T08:50:37.733Z,20.23
2023-04-18T08:53:40.149Z,20.13
2023-04-18T08:56:42.579Z,20.28
2023-04-18T08:59:46.775Z,20.28
2023-04-18T09:02:55.183Z,20.32
2023-04-18T09:06:16.129Z,20.40
2023-04-18T09:09:24.545Z,20.34
2023-04-18T09:12:28.540Z,20.32
2023-04-18T09:15:31.385Z,20.30
2023-04-18T09:18:33.962Z,20.27
2023-04-18T09:21:39.387Z,20.32
2023-04-18T09:25:14.348Z,20.29
2023-04-18T09:28:29.934Z,20.36
2023-04-18T09:31:32.838Z,20.44
2023-04-18T09:34:39.161Z,20.49
2023-04-18T09:37:51.194Z,20.49
2023-04-18T09:41:08.286Z,20.43
2023-04-18T09:44:15.103Z,20.58
2023-04-18T09:47:21.390Z,20.32
2023-04-18T09:50:24.263Z,20.10
2023-04-18T09:53:28.652Z,20.26
2023-04-18T09:56:32.785Z,20.23
2023-04-18T09:59:48.943Z,20.49
2023-04-18T10:02:54.537Z,20.47
2023-04-18T10:05:57.843Z,20.43
2023-04-18T10:09:03.405Z,20.51
2023-04-18T10:12:06.023Z,20.50
2023-04-18T10:15:10.271Z,20.48
2023-04-18T10:18:17.339Z,20.33
2023-04-18T10:21:21.486Z,20.47
2023-04-18T10:24:48.273Z,20.42
2023-04-18T10:27:58.383Z,20.35
2023-04-18T10:31:05.071Z,20.36
2023-04-18T10:34:08.076Z,20.41
2023-04-18T10:37:12.987Z,20.36
2023-04-18T10:40:15.740Z,20.46
2023-04-18T10:43:18.120Z,20.47
2023-04-18T10:46:30.936Z,20.46
2023-04-18T11:06:56.066Z,20.37
2023-04-18T11:09:58.507Z,20.26
2023-04-18T11:13:04.733Z,20.30
2023-04-18T11:16:07.692Z,20.35
2023-04-18T11:19:25.769Z,20.37
2023-04-18T11:22:28.235Z,20.44
2023-04-18T11:25:32.665Z,20.42
2023-04-18T11:28:37.198Z,20.31
2023-04-18T11:31:39.861Z,20.27
2023-04-18T11:34:42.311Z,20.37
2023-04-18T11:37:49.958Z,20.29
2023-04-18T11:40:52.490Z,20.34
2023-04-18T11:43:56.279Z,20.37
2023-04-18T11:46:58.814Z,20.48
2023-04-18T11:50:03.105Z,20.49
2023-04-18T11:53:05.555Z,20.36
2023-04-18T11:56:08.106Z,20.31
2023-04-18T11:59:10.533Z,20.31
2023-04-18T12:02:16.581Z,20.30
2023-04-18T12:05:27.694Z,20.23
2023-04-18T12:08:31.720Z,20.37
2023-04-18T12:11:34.113Z,20.15
2023-04-18T12:14:36.617Z,20.14
2023-04-18T12:17:39.229Z,20.07
2023-04-18T12:20:47.499Z,20.18
2023-04-18T12:23:49.855Z,20.07
2023-04-18T12:26:54.021Z,20.21
2023-04-18T12:29:56.554Z,20.23
2023-04-18T12:33:01.397Z,20.10
2023-04-18T12:36:05.620Z,20.24
2023-04-18T12:39:08.150Z,19.94
2023-04-18T12:42:10.910Z,19.94
2023-04-18T12:49:24.303Z,20.19
2023-04-18T12:52:44.603Z,19.94
2023-04-18T12:56:16.174Z,19.79
2023-04-18T12:59:19.311Z,20.07
2023-04-18T13:02:22.114Z,20.17
2023-04-18T13:05:28.016Z,20.11
2023-04-18T13:08:31.653Z,19.92
2023-04-18T13:11:34.053Z,20.06
2023-04-18T13:14:36.833Z,19.95
2023-04-18T13:17:39.955Z,20.04
2023-04-18T13:20:42.521Z,19.88
2023-04-18T13:23:44.952Z,19.92
2023-04-18T13:26:56.711Z,19.98
2023-04-18T13:29:59.277Z,19.91
2023-04-18T13:33:01.781Z,20.04
2023-04-18T13:36:04.604Z,20.03
2023-04-18T13:39:07.013Z,19.87
2023-04-18T13:42:09.956Z,19.95
2023-04-18T13:45:12.419Z,19.89
2023-04-18T13:48:16.279Z,19.83
2023-04-18T13:51:18.964Z,19.84
2023-04-18T13:54:21.461Z,19.75
2023-04-18T13:57:24.005Z,19.78
2023-04-18T14:00:27.016Z,19.84
2023-04-18T14:03:29.709Z,19.76
2023-04-18T14:06:32.787Z,19.69
2023-04-18T14:09:35.328Z,19.80
2023-04-18T14:12:37.659Z,19.92
2023-04-18T14:15:40.086Z,19.64
2023-04-18T14:18:42.732Z,19.82
2023-04-18T14:21:46.547Z,19.89
2023-04-18T14:24:52.268Z,19.75
2023-04-18T14:28:04.930Z,19.73
2023-04-18T14:31:07.618Z,19.73
2023-04-18T14:34:10.089Z,19.67
2023-04-18T14:37:12.423Z,19.77
2023-04-18T14:41:05.360Z,19.75
2023-04-18T14:44:08.352Z,19.73
2023-04-18T14:47:11.032Z,19.67
2023-04-18T14:50:13.661Z,19.68
2023-04-18T14:53:16.037Z,19.73
2023-04-18T14:56:21.248Z,19.63
2023-04-18T14:59:28.236Z,19.54
2023-04-18T15:02:30.759Z,19.62
2023-04-18T15:05:35.033Z,19.58
2023-04-18T15:08:37.674Z,19.49
2023-04-18T15:11:40.285Z,19.61
2023-04-18T15:14:42.768Z,19.67
2023-04-18T15:17:45.251Z,19.61
2023-04-18T15:20:47.833Z,19.42
2023-04-18T15:23:50.510Z,19.44
2023-04-18T15:26:53.027Z,19.64
2023-04-18T15:29:55.449Z,19.45
2023-04-18T15:32:58.707Z,19.64
2023-04-18T15:36:01.143Z,19.56
2023-04-18T15:39:05.771Z,19.50
2023-04-18T15:42:08.269Z,19.48
2023-04-18T15:45:11.675Z,19.40
2023-04-18T15:48:14.088Z,19.41
2023-04-18T15:51:16.701Z,19.54
2023-04-18T15:54:19.166Z,19.48
2023-04-18T15:57:21.876Z,19.41
2023-04-18T16:00:24.416Z,19.47
2023-04-18T16:03:27.185Z,19.43
2023-04-18T16:06:31.322Z,19.59
2023-04-18T16:09:33.777Z,19.48
2023-04-18T16:12:37.570Z,19.45
2023-04-18T16:15:41.718Z,19.53
2023-04-18T16:18:44.102Z,19.48
2023-04-18T16:21:47.209Z,19.54
2023-04-18T16:24:49.666Z,19.41
2023-04-18T16:27:52.093Z,19.47
2023-04-18T16:30:55.744Z,19.44
2023-04-18T16:33:58.360Z,19.40
2023-04-18T16:37:01.145Z,19.46
2023-04-18T16:40:07.298Z,19.43
2023-04-18T16:43:09.602Z,19.34
2023-04-18T16:46:13.743Z,19.41
2023-04-18T16:49:16.302Z,19.35
2023-04-18T16:52:18.844Z,19.39
2023-04-18T16:55:21.578Z,19.34
2023-04-18T16:58:23.987Z,19.32
2023-04-18T17:01:26.444Z,19.28
2023-04-18T17:04:29.252Z,19.28
2023-04-18T17:07:31.668Z,19.21
2023-04-18T17:10:34.516Z,19.26
2023-04-18T17:13:37.229Z,19.17
2023-04-18T17:16:41.001Z,19.15
2023-04-18T17:19:43.542Z,19.17
2023-04-18T17:22:46.061Z,19.16
2023-04-18T17:25:48.997Z,18.96
2023-04-18T17:28:51.519Z,19.09
2023-04-18T17:31:54.085Z,19.07
2023-04-18T17:34:56.813Z,19.02
2023-04-18T17:37:59.312Z,19.02
2023-04-18T17:41:02.966Z,19.00
2023-04-18T17:44:07.430Z,18.90
2023-04-18T17:47:09.910Z,18.90
2023-04-18T17:50:12.371Z,18.89
2023-04-18T17:53:14.888Z,18.83
2023-04-18T17:56:17.322Z,18.85
2023-04-18T17:59:20.162Z,18.75
2023-04-18T18:02:25.353Z,18.82
2023-04-18T18:05:27.816Z,18.79
2023-04-18T18:08:30.756Z,18.75
2023-04-18T18:11:33.328Z,18.73
2023-04-18T18:14:37.584Z,18.70
2023-04-18T18:17:40.156Z,18.61
2023-04-18T18:20:43.331Z,18.64
2023-04-18T18:23:46.041Z,18.57
2023-04-18T18:26:51.499Z,18.60
2023-04-18T18:29:54.463Z,18.61
2023-04-18T18:32:57.084Z,18.54
2023-04-18T18:35:59.816Z,18.56
2023-04-18T18:39:02.387Z,18.47
2023-04-18T18:42:04.803Z,18.42
2023-04-18T18:45:08.143Z,18.43
2023-04-18T18:48:11.682Z,18.47
2023-04-18T18:51:14.286Z,18.46
2023-04-18T18:54:16.866Z,18.47
2023-04-18T18:57:19.611Z,18.42
2023-04-18T19:00:22.276Z,18.42
2023-04-18T19:03:25.883Z,18.35
2023-04-18T19:06:28.556Z,18.32
2023-04-18T19:09:31.171Z,18.29
2023-04-18T19:12:33.762Z,18.28
2023-04-18T19:15:36.588Z,18.36
2023-04-18T19:18:40.694Z,18.29
2023-04-18T19:21:46.094Z,18.23
2023-04-18T19:24:49.383Z,18.26
2023-04-18T19:27:52.668Z,18.21
2023-04-18T19:30:55.778Z,18.29
2023-04-18T19:33:58.312Z,18.11
2023-04-18T19:37:01.371Z,18.27
2023-04-18T19:40:04.186Z,18.23
2023-04-18T19:43:06.723Z,18.26
2023-04-18T19:46:09.366Z,18.26
2023-04-18T19:49:11.762Z,18.23
2023-04-18T19:52:14.687Z,18.20
2023-04-18T19:55:17.186Z,18.20
2023-04-18T19:58:39.806Z,18.17
2023-04-18T20:01:42.496Z,18.20
2023-04-18T20:04:45.200Z,18.09
2023-04-18T20:07:48.228Z,18.21
2023-04-18T20:10:50.715Z,18.19
2023-04-18T20:13:55.377Z,18.20
2023-04-18T20:16:58.005Z,18.11
2023-04-18T20:20:00.823Z,18.17
2023-04-18T20:23:03.500Z,18.10
2023-04-18T20:26:06.805Z,18.15
2023-04-18T20:29:09.325Z,18.07
2023-04-18T20:32:12.003Z,18.09
2023-04-18T20:35:14.383Z,18.11
2023-04-18T20:38:16.700Z,18.07
2023-04-18T20:41:20.838Z,18.12
2023-04-18T20:44:24.955Z,18.05
2023-04-18T20:47:27.826Z,18.11
2023-04-18T20:50:30.756Z,18.12
2023-04-18T20:53:33.181Z,18.12
2023-04-18T20:56:38.603Z,18.01
2023-04-18T20:59:41.020Z,18.04
2023-04-18T21:02:44.363Z,17.96
2023-04-18T21:05:46.808Z,18.06
2023-04-18T21:08:49.169Z,18.09
2023-04-18T21:11:51.483Z,18.10
2023-04-18T21:14:53.822Z,18.05
2023-04-18T21:17:56.373Z,18.08
2023-04-18T21:20:58.708Z,18.07
2023-04-18T21:24:01.795Z,18.01
2023-04-18T21:27:04.244Z,17.98
2023-04-18T21:30:07.099Z,17.96
2023-04-18T21:33:09.482Z,18.03
2023-04-18T21:36:11.833Z,18.00
2023-04-18T21:39:14.205Z,17.94
2023-04-18T21:42:16.531Z,18.01
2023-04-18T21:45:18.910Z,17.94
2023-04-18T21:48:21.749Z,18.01
2023-04-18T21:51:24.117Z,17.99
2023-04-18T21:54:26.521Z,18.00
2023-04-18T21:57:28.902Z,17.99
2023-04-18T22:00:31.273Z,17.97
2023-04-18T22:03:34.309Z,17.96
2023-04-18T22:06:36.752Z,17.89
2023-04-18T22:09:39.112Z,17.83
2023-04-18T22:12:42.467Z,17.96
2023-04-18T22:15:45.081Z,17.87
2023-04-18T22:18:48.933Z,17.86
2023-04-18T22:21:51.499Z,17.76
2023-04-18T22:24:53.864Z,17.94
2023-04-18T22:27:56.277Z,17.85
2023-04-18T22:30:58.686Z,17.80
2023-04-18T22:34:01.172Z,17.90
2023-04-18T22:37:03.499Z,17.89
2023-04-18T22:40:06.483Z,17.90
2023-04-18T22:43:08.980Z,17.76
2023-04-18T22:46:11.400Z,17.90
2023-04-18T22:49:14.220Z,17.75
2023-04-18T22:52:16.506Z,17.87
2023-04-18T22:55:19.988Z,17.86
2023-04-18T22:58:22.281Z,17.87
2023-04-18T23:01:24.666Z,17.84
2023-04-18T23:04:30.034Z,17.77
2023-04-18T23:07:32.537Z,17.79
2023-04-18T23:10:35.081Z,17.84
2023-04-18T23:13:37.400Z,17.73
2023-04-18T23:16:41.011Z,17.76
2023-04-18T23:19:45.178Z,17.83
2023-04-18T23:22:50.133Z,17.77
2023-04-18T23:25:52.540Z,17.72
2023-04-18T23:28:54.957Z,17.80
2023-04-18T23:31:57.434Z,17.80
2023-04-18T23:35:04.194Z,17.77
2023-04-18T23:38:06.568Z,17.77
2023-04-18T23:41:08.915Z,17.78
2023-04-18T23:44:11.262Z,17.79
2023-04-18T23:47:13.625Z,17.69
2023-04-18T23:50:16.034Z,17.71
2023-04-18T23:53:19.316Z,17.73
2023-04-18T23:56:23.228Z,17.68
2023-04-18T23:59:25.594Z,17.69
